createdAt,value
2018-11-04T00:00:25.858Z,10.90
2018-11-04T00:02:54.411Z,10.90
2018-11-04T00:05:22.957Z,11.00
2018-11-04T00:07:52.213Z,10.50
2018-11-04T00:10:21.005Z,10.60
2018-11-04T00:12:49.625Z,10.40
2018-11-04T00:15:18.136Z,10.40
2018-11-04T00:17:46.855Z,10.40
2018-11-04T00:20:15.851Z,10.70
2018-11-04T00:22:44.505Z,10.60
2018-11-04T00:25:14.086Z,10.50
2018-11-04T00:27:42.651Z,10.50
2018-11-04T00:30:14.098Z,10.60
2018-11-04T00:32:43.064Z,10.60
2018-11-04T00:35:11.990Z,10.80
2018-11-04T00:37:40.758Z,10.90
2018-11-04T00:40:09.565Z,10.90
2018-11-04T00:42:38.475Z,10.90
2018-11-04T00:45:08.733Z,10.80
2018-11-04T00:47:37.952Z,10.80
2018-11-04T00:50:09.032Z,10.60
2018-11-04T00:52:37.553Z,10.50
2018-11-04T00:55:06.754Z,10.70
2018-11-04T00:57:35.293Z,10.90
2018-11-04T01:00:04.922Z,10.90
2018-11-04T01:02:33.439Z,10.90
2018-11-04T01:05:01.984Z,10.90
2018-11-04T01:07:30.551Z,10.80
2018-11-04T01:09:59.140Z,10.90
2018-11-04T01:12:27.648Z,11.00
2018-11-04T01:14:56.268Z,10.90
2018-11-04T01:17:25.051Z,10.90
2018-11-04T01:19:53.585Z,10.90
2018-11-04T01:22:22.121Z,10.60
2018-11-04T01:24:50.691Z,10.50
2018-11-04T01:27:19.225Z,10.70
2018-11-04T01:29:47.777Z,10.60
2018-11-04T01:32:16.464Z,10.40
2018-11-04T01:34:45.011Z,10.20
2018-11-04T01:37:14.375Z,10.30
2018-11-04T01:39:43.166Z,10.50
2018-11-04T01:42:11.720Z,10.70
2018-11-04T01:44:40.329Z,10.90
2018-11-04T01:47:08.850Z,10.50
2018-11-04T01:49:37.398Z,10.70
2018-11-04T01:54:27.286Z,10.60
2018-11-04T01:56:55.819Z,10.70
2018-11-04T01:59:24.378Z,10.50
2018-11-04T02:01:52.921Z,10.30
2018-11-04T02:04:21.479Z,10.50
2018-11-04T02:06:50.045Z,10.40
2018-11-04T02:09:18.619Z,10.50
2018-11-04T02:11:47.148Z,10.50
2018-11-04T02:14:15.712Z,10.30
2018-11-04T02:16:44.315Z,10.50
2018-11-04T02:19:12.858Z,10.50
2018-11-04T02:21:41.400Z,10.40
2018-11-04T02:24:10.169Z,10.50
2018-11-04T02:26:38.734Z,10.60
2018-11-04T02:29:07.271Z,10.30
2018-11-04T02:31:36.571Z,10.40
2018-11-04T02:34:05.195Z,10.50
2018-11-04T02:36:33.762Z,10.60
2018-11-04T02:39:02.830Z,10.40
2018-11-04T02:41:31.399Z,10.00
2018-11-04T02:43:59.919Z,10.10
2018-11-04T02:46:28.491Z,9.80
2018-11-04T02:48:57.015Z,9.80
2018-11-04T02:51:25.579Z,10.10
2018-11-04T02:53:54.678Z,10.00
2018-11-04T02:56:23.268Z,10.30
2018-11-04T02:58:51.793Z,10.40
2018-11-04T03:01:20.335Z,10.60
2018-11-04T03:03:48.947Z,10.40
2018-11-04T03:06:17.525Z,10.60
2018-11-04T03:08:46.116Z,10.60
2018-11-04T03:11:14.675Z,10.70
2018-11-04T03:13:43.439Z,10.70
2018-11-04T03:16:12.202Z,10.50
2018-11-04T03:18:41.454Z,10.60
2018-11-04T03:21:10.003Z,10.60
2018-11-04T03:23:38.548Z,10.70
2018-11-04T03:26:07.110Z,10.70
2018-11-04T03:28:35.631Z,10.60
2018-11-04T03:31:04.688Z,10.70
2018-11-04T03:33:33.230Z,10.70
2018-11-04T03:36:01.778Z,10.70
2018-11-04T03:38:30.878Z,10.40
2018-11-04T03:40:59.566Z,10.10
2018-11-04T03:43:28.102Z,10.50
2018-11-04T03:45:56.653Z,10.40
2018-11-04T03:48:25.308Z,10.50
2018-11-04T03:50:53.866Z,10.60
2018-11-04T03:53:22.420Z,10.60
2018-11-04T03:55:50.976Z,10.70
2018-11-04T03:58:19.494Z,10.60
2018-11-04T04:00:48.031Z,10.50
2018-11-04T04:03:16.607Z,10.60
2018-11-04T04:05:45.223Z,10.50
2018-11-04T04:08:13.781Z,10.30
2018-11-04T04:10:42.376Z,10.00
2018-11-04T04:13:11.112Z,10.30
2018-11-04T04:15:39.684Z,10.40
2018-11-04T04:18:08.374Z,10.50
2018-11-04T04:20:36.911Z,10.30
2018-11-04T04:23:05.806Z,10.40
2018-11-04T04:25:34.351Z,10.00
2018-11-04T04:28:02.908Z,10.10
2018-11-04T04:30:31.449Z,10.30
2018-11-04T04:33:00.040Z,10.20
2018-11-04T04:35:28.574Z,10.30
2018-11-04T04:37:57.118Z,10.40
2018-11-04T04:40:25.691Z,10.10
2018-11-04T04:42:54.250Z,10.40
2018-11-04T04:45:22.762Z,10.30
2018-11-04T04:47:51.327Z,10.20
2018-11-04T04:50:19.853Z,10.20
2018-11-04T04:52:48.386Z,10.30
2018-11-04T04:55:16.966Z,10.10
2018-11-04T04:57:45.528Z,10.10
2018-11-04T05:00:14.070Z,10.20
2018-11-04T05:02:42.627Z,10.00
2018-11-04T05:05:11.258Z,10.00
2018-11-04T05:07:39.818Z,10.20
2018-11-04T05:10:08.434Z,10.30
2018-11-04T05:12:36.993Z,10.20
2018-11-04T05:15:07.299Z,10.20
2018-11-04T05:17:35.832Z,10.10
2018-11-04T05:20:05.428Z,10.20
2018-11-04T05:22:33.982Z,10.30
2018-11-04T05:25:02.649Z,10.50
2018-11-04T05:27:31.253Z,10.40
2018-11-04T05:29:59.843Z,10.50
2018-11-04T05:32:29.255Z,10.50
2018-11-04T05:34:58.629Z,10.50
2018-11-04T05:37:27.178Z,10.60
2018-11-04T05:39:55.724Z,10.30
2018-11-04T05:42:24.265Z,10.30
2018-11-04T05:44:52.823Z,9.80
2018-11-04T05:47:21.970Z,9.80
2018-11-04T05:49:51.126Z,10.00
2018-11-04T05:52:19.685Z,10.10
2018-11-04T05:54:48.329Z,10.00
2018-11-04T05:57:16.863Z,10.00
2018-11-04T05:59:45.579Z,9.90
2018-11-04T06:02:14.427Z,9.90
2018-11-04T06:04:43.091Z,10.20
2018-11-04T06:07:11.657Z,10.30
2018-11-04T06:09:40.405Z,10.10
2018-11-04T06:12:08.959Z,10.30
2018-11-04T06:14:37.516Z,10.20
2018-11-04T06:17:06.039Z,10.10
2018-11-04T06:19:34.668Z,10.10
2018-11-04T06:22:03.162Z,10.20
2018-11-04T06:24:31.707Z,10.30
2018-11-04T06:27:00.234Z,10.20
2018-11-04T06:29:28.793Z,10.30
2018-11-04T06:31:57.319Z,10.40
2018-11-04T06:34:25.968Z,10.20
2018-11-04T06:36:54.644Z,10.20
2018-11-04T06:39:23.178Z,10.20
2018-11-04T06:41:51.716Z,10.20
2018-11-04T06:44:20.369Z,10.10
2018-11-04T06:46:48.899Z,9.90
2018-11-04T06:49:17.502Z,9.90
2018-11-04T06:51:46.077Z,9.80
2018-11-04T06:54:14.665Z,10.00
2018-11-04T06:56:43.210Z,10.20
2018-11-04T06:59:11.771Z,10.20
2018-11-04T07:01:40.286Z,10.20
2018-11-04T07:04:25.167Z,10.10
2018-11-04T07:06:53.687Z,9.90
2018-11-04T07:09:22.286Z,10.10
2018-11-04T07:11:51.094Z,10.10
2018-11-04T07:14:20.201Z,10.00
2018-11-04T07:16:48.738Z,10.10
2018-11-04T07:19:17.507Z,9.80
2018-11-04T07:21:46.064Z,9.60
2018-11-04T07:24:14.727Z,9.80
2018-11-04T07:26:43.293Z,10.00
2018-11-04T07:29:11.841Z,10.00
2018-11-04T07:31:40.403Z,10.10
2018-11-04T07:34:09.032Z,10.10
2018-11-04T07:36:38.303Z,10.00
2018-11-04T07:39:10.202Z,10.00
2018-11-04T07:41:38.824Z,10.00
2018-11-04T07:44:07.413Z,10.10
2018-11-04T07:46:36.054Z,10.10
2018-11-04T07:49:04.942Z,10.00
2018-11-04T07:51:33.623Z,9.70
2018-11-04T07:54:02.134Z,9.70
2018-11-04T07:56:30.662Z,9.70
2018-11-04T07:58:59.186Z,9.80
2018-11-04T08:01:27.824Z,9.80
2018-11-04T08:03:56.411Z,10.00
2018-11-04T08:06:24.945Z,9.90
2018-11-04T08:08:53.553Z,10.00
2018-11-04T08:11:22.561Z,10.10
2018-11-04T08:13:51.234Z,9.90
2018-11-04T08:16:19.946Z,10.10
2018-11-04T08:18:48.501Z,9.90
2018-11-04T08:21:17.148Z,9.50
2018-11-04T08:23:45.707Z,9.60
2018-11-04T08:26:14.286Z,9.60
2018-11-04T08:28:42.843Z,9.60
2018-11-04T08:31:11.398Z,9.70
2018-11-04T08:33:39.940Z,9.60
2018-11-04T08:36:08.713Z,9.50
2018-11-04T08:38:37.228Z,9.70
2018-11-04T08:41:05.798Z,9.80
2018-11-04T08:43:34.447Z,10.00
2018-11-04T08:46:03.371Z,9.80
2018-11-04T08:48:32.205Z,9.80
2018-11-04T08:51:00.766Z,10.00
2018-11-04T08:53:29.395Z,10.00
2018-11-04T08:55:57.957Z,10.00
2018-11-04T08:58:27.523Z,9.90
2018-11-04T09:00:56.107Z,10.10
2018-11-04T09:03:24.652Z,9.90
2018-11-04T09:05:53.216Z,10.00
2018-11-04T09:08:21.768Z,10.00
2018-11-04T09:10:50.309Z,9.90
2018-11-04T09:13:19.367Z,9.70
2018-11-04T09:15:47.915Z,9.80
2018-11-04T09:18:16.449Z,9.90
2018-11-04T09:20:45.002Z,10.00
2018-11-04T09:23:13.525Z,9.90
2018-11-04T09:25:42.100Z,9.70
2018-11-04T09:28:10.629Z,9.90
2018-11-04T09:30:39.247Z,9.90
2018-11-04T09:33:07.769Z,10.00
2018-11-04T09:35:36.538Z,10.10
2018-11-04T09:38:05.259Z,9.80
2018-11-04T09:40:33.821Z,10.10
2018-11-04T09:43:02.410Z,9.80
2018-11-04T09:45:30.943Z,9.90
2018-11-04T09:47:59.750Z,9.90
2018-11-04T09:50:28.281Z,9.90
2018-11-04T09:52:57.050Z,9.90
2018-11-04T09:55:25.638Z,9.80
2018-11-04T09:57:54.192Z,9.80
2018-11-04T10:00:22.717Z,9.70
2018-11-04T10:02:51.287Z,9.80
2018-11-04T10:05:19.849Z,9.90
2018-11-04T10:07:48.407Z,10.00
2018-11-04T10:10:16.980Z,10.00
2018-11-04T10:12:45.646Z,10.00
2018-11-04T10:15:14.699Z,9.90
2018-11-04T10:17:43.310Z,10.10
2018-11-04T10:20:12.728Z,10.30
2018-11-04T10:22:41.715Z,10.30
2018-11-04T10:25:11.840Z,10.20
2018-11-04T10:27:41.047Z,10.00
2018-11-04T10:30:12.228Z,10.00
2018-11-04T10:32:40.863Z,9.90
2018-11-04T10:35:10.050Z,10.00
2018-11-04T10:37:39.376Z,10.00
2018-11-04T10:40:09.286Z,10.10
2018-11-04T10:42:37.865Z,10.10
2018-11-04T10:45:07.658Z,10.00
2018-11-04T10:47:36.212Z,10.10
2018-11-04T10:50:05.967Z,10.20
2018-11-04T10:52:34.524Z,10.00
2018-11-04T10:55:03.230Z,10.10
2018-11-04T10:57:31.789Z,10.00
2018-11-04T11:00:00.330Z,10.00
2018-11-04T11:02:28.906Z,10.10
2018-11-04T11:04:57.658Z,10.10
2018-11-04T11:07:26.206Z,10.10
2018-11-04T11:09:55.921Z,10.00
2018-11-04T11:12:24.493Z,10.00
2018-11-04T11:14:53.056Z,10.10
2018-11-04T11:17:21.631Z,10.20
2018-11-04T11:19:50.151Z,10.20
2018-11-04T11:22:18.676Z,10.30
2018-11-04T11:24:47.356Z,10.20
2018-11-04T11:27:16.527Z,10.10
2018-11-04T11:29:45.110Z,10.30
2018-11-04T11:32:13.618Z,10.10
2018-11-04T11:34:42.202Z,10.10
2018-11-04T11:37:10.751Z,10.30
2018-11-04T11:39:39.314Z,10.30
2018-11-04T11:42:07.858Z,10.20
2018-11-04T11:44:36.468Z,10.20
2018-11-04T11:47:05.233Z,10.20
2018-11-04T11:49:33.871Z,10.20
2018-11-04T11:52:02.472Z,10.30
2018-11-04T11:54:31.184Z,10.40
2018-11-04T11:56:59.723Z,10.30
2018-11-04T11:59:28.385Z,10.50
2018-11-04T12:01:56.949Z,10.40
2018-11-04T12:04:25.563Z,10.40
2018-11-04T12:06:54.090Z,10.40
2018-11-04T12:09:22.670Z,10.30
2018-11-04T12:11:51.222Z,10.30
2018-11-04T12:14:19.782Z,10.30
2018-11-04T12:16:48.306Z,10.40
2018-11-04T12:19:16.857Z,10.30
2018-11-04T12:21:45.386Z,10.40
2018-11-04T12:24:13.949Z,10.30
2018-11-04T12:26:42.476Z,10.30
2018-11-04T12:29:11.149Z,10.30
2018-11-04T12:31:39.667Z,10.40
2018-11-04T12:34:08.458Z,10.30
2018-11-04T12:36:37.005Z,10.30
2018-11-04T12:39:08.197Z,10.20
2018-11-04T12:41:36.748Z,10.30
2018-11-04T12:44:05.542Z,10.30
2018-11-04T12:46:34.139Z,10.30
2018-11-04T12:49:02.923Z,10.30
2018-11-04T12:51:31.450Z,10.30
2018-11-04T12:54:00.007Z,10.30
2018-11-04T12:56:28.642Z,10.40
2018-11-04T12:58:57.479Z,10.20
2018-11-04T13:01:26.233Z,10.30
2018-11-04T13:03:55.272Z,10.30
2018-11-04T13:06:23.851Z,10.30
2018-11-04T13:08:52.510Z,10.20
2018-11-04T13:11:21.096Z,10.20
2018-11-04T13:13:49.638Z,10.20
2018-11-04T13:16:18.165Z,10.30
2018-11-04T13:18:46.714Z,10.20
2018-11-04T13:21:15.346Z,10.40
2018-11-04T13:23:43.906Z,10.30
2018-11-04T13:26:12.476Z,10.30
2018-11-04T13:28:41.018Z,10.30
2018-11-04T13:31:09.586Z,10.20
2018-11-04T13:33:38.131Z,10.10
2018-11-04T13:36:06.727Z,10.20
2018-11-04T13:38:35.291Z,10.30
2018-11-04T13:41:03.859Z,10.30
2018-11-04T13:43:32.443Z,10.30
2018-11-04T13:46:01.087Z,10.30
2018-11-04T13:48:29.637Z,10.30
2018-11-04T13:50:58.337Z,10.20
2018-11-04T13:53:26.898Z,10.20
2018-11-04T13:55:55.484Z,10.20
2018-11-04T13:58:24.289Z,10.20
2018-11-04T14:00:52.857Z,10.20
2018-11-04T14:03:21.421Z,10.40
2018-11-04T14:05:49.983Z,10.20
2018-11-04T14:08:18.574Z,10.20
2018-11-04T14:10:47.222Z,10.30
2018-11-04T14:13:15.826Z,10.30
2018-11-04T14:15:44.489Z,10.40
2018-11-04T14:18:13.159Z,10.50
2018-11-04T14:20:41.791Z,10.50
2018-11-04T14:23:10.483Z,10.50
2018-11-04T14:25:39.135Z,10.50
2018-11-04T14:28:07.999Z,10.50
2018-11-04T14:30:36.704Z,10.40
2018-11-04T14:33:05.373Z,10.30
2018-11-04T14:35:33.923Z,10.30
2018-11-04T14:38:02.610Z,10.20
2018-11-04T14:40:31.373Z,10.20
2018-11-04T14:43:00.220Z,10.30
2018-11-04T14:45:28.965Z,10.20
2018-11-04T14:47:57.498Z,10.20
2018-11-04T14:50:26.199Z,10.20
2018-11-04T14:52:55.106Z,10.20
2018-11-04T14:55:23.614Z,10.20
2018-11-04T14:57:52.141Z,10.20
2018-11-04T15:00:20.766Z,10.10
2018-11-04T15:02:49.382Z,10.10
2018-11-04T15:05:18.203Z,10.20
2018-11-04T15:07:46.731Z,10.30
2018-11-04T15:10:16.487Z,10.30
2018-11-04T15:12:45.308Z,10.10
2018-11-04T15:15:15.587Z,10.10
2018-11-04T15:17:44.159Z,10.20
2018-11-04T15:20:13.088Z,10.00
2018-11-04T15:22:44.231Z,10.10
2018-11-04T15:25:12.810Z,10.10
2018-11-04T15:27:41.334Z,10.10
2018-11-04T15:30:10.821Z,10.10
2018-11-04T15:32:39.721Z,10.10
2018-11-04T15:35:08.495Z,9.90
2018-11-04T15:37:37.056Z,10.00
2018-11-04T15:40:07.241Z,9.90
2018-11-04T15:42:35.788Z,9.90
2018-11-04T15:45:04.606Z,9.90
2018-11-04T15:47:33.167Z,9.90
2018-11-04T15:50:01.729Z,10.10
2018-11-04T15:52:30.251Z,9.90
2018-11-04T15:54:58.834Z,10.00
2018-11-04T15:57:27.372Z,9.90
2018-11-04T15:59:55.933Z,10.00
2018-11-04T16:02:24.458Z,10.10
2018-11-04T16:04:53.014Z,10.00
2018-11-04T16:07:21.557Z,10.00
2018-11-04T16:09:50.164Z,10.20
2018-11-04T16:12:18.774Z,10.40
2018-11-04T16:14:47.305Z,10.30
2018-11-04T16:17:15.853Z,10.10
2018-11-04T16:19:44.522Z,10.10
2018-11-04T16:22:13.079Z,10.10
2018-11-04T16:24:41.664Z,10.20
2018-11-04T16:27:10.274Z,10.10
2018-11-04T16:29:38.829Z,9.90
2018-11-04T16:32:07.419Z,10.10
2018-11-04T16:34:35.963Z,10.10
2018-11-04T16:37:04.666Z,10.00
2018-11-04T16:39:33.213Z,9.90
2018-11-04T16:42:02.017Z,9.90
2018-11-04T16:44:30.596Z,9.90
2018-11-04T16:46:59.244Z,10.00
2018-11-04T16:49:27.770Z,10.10
2018-11-04T16:51:56.341Z,10.00
2018-11-04T16:54:24.898Z,10.10
2018-11-04T16:56:54.742Z,10.00
2018-11-04T16:59:24.563Z,9.90
2018-11-04T17:01:53.179Z,9.90
2018-11-04T17:04:21.925Z,10.00
2018-11-04T17:06:50.358Z,9.90
2018-11-04T17:09:19.000Z,9.80
2018-11-04T17:11:47.558Z,9.90
2018-11-04T17:14:16.091Z,10.00
2018-11-04T17:16:44.638Z,10.10
2018-11-04T17:19:13.171Z,10.10
2018-11-04T17:21:41.731Z,10.00
2018-11-04T17:24:10.249Z,9.90
2018-11-04T17:26:38.861Z,9.80
2018-11-04T17:29:07.455Z,9.80
2018-11-04T17:31:36.008Z,9.90
2018-11-04T17:34:05.024Z,10.10
2018-11-04T17:36:33.627Z,10.00
2018-11-04T17:39:02.138Z,9.90
2018-11-04T17:41:31.587Z,9.90
2018-11-04T17:44:00.280Z,9.80
2018-11-04T17:46:28.807Z,9.80
2018-11-04T17:48:57.326Z,9.80
2018-11-04T17:51:25.859Z,9.90
2018-11-04T17:53:54.451Z,9.80
2018-11-04T17:56:22.983Z,10.00
2018-11-04T17:58:51.565Z,10.00
2018-11-04T18:01:20.175Z,10.00
2018-11-04T18:03:48.724Z,9.80
2018-11-04T18:06:17.609Z,9.80
2018-11-04T18:08:46.158Z,9.80
2018-11-04T18:11:14.714Z,9.80
2018-11-04T18:13:43.395Z,9.80
2018-11-04T18:16:12.111Z,9.70
2018-11-04T18:18:40.984Z,9.90
2018-11-04T18:21:09.538Z,9.80
2018-11-04T18:23:38.088Z,10.00
2018-11-04T18:26:06.735Z,10.00
2018-11-04T18:28:35.298Z,10.00
2018-11-04T18:31:03.859Z,9.90
2018-11-04T18:33:32.611Z,9.90
2018-11-04T18:36:01.307Z,9.90
2018-11-04T18:38:29.782Z,10.00
2018-11-04T18:40:58.330Z,9.90
2018-11-04T18:43:26.849Z,9.90
2018-11-04T18:45:55.404Z,9.90
2018-11-04T18:48:23.926Z,9.90
2018-11-04T18:50:52.514Z,10.00
2018-11-04T18:53:21.046Z,10.20
2018-11-04T18:55:49.638Z,9.90
2018-11-04T18:58:18.286Z,9.80
2018-11-04T19:00:46.836Z,9.80
2018-11-04T19:03:15.377Z,9.80
2018-11-04T19:05:43.926Z,9.90
2018-11-04T19:08:12.494Z,9.90
2018-11-04T19:10:41.130Z,9.90
2018-11-04T19:13:09.691Z,10.00
2018-11-04T19:15:38.472Z,10.00
2018-11-04T19:18:07.026Z,10.00
2018-11-04T19:20:35.757Z,10.00
2018-11-04T19:23:04.411Z,9.90
2018-11-04T19:25:32.942Z,9.80
2018-11-04T19:28:02.104Z,9.80
2018-11-04T19:30:31.012Z,9.70
2018-11-04T19:32:59.559Z,9.80
2018-11-04T19:35:28.090Z,9.80
2018-11-04T19:37:56.700Z,10.00
2018-11-04T19:40:25.305Z,10.00
2018-11-04T19:42:53.935Z,10.10
2018-11-04T19:45:22.449Z,10.10
2018-11-04T19:47:51.059Z,10.00
2018-11-04T19:50:19.687Z,9.80
2018-11-04T19:52:48.253Z,9.80
2018-11-04T19:55:17.027Z,9.80
2018-11-04T19:57:45.595Z,9.70
2018-11-04T20:00:14.464Z,9.80
2018-11-04T20:02:43.032Z,9.80
2018-11-04T20:05:12.562Z,9.80
2018-11-04T20:07:41.154Z,9.80
2018-11-04T20:10:13.112Z,9.80
2018-11-04T20:12:47.006Z,9.70
2018-11-04T20:15:15.806Z,9.80
2018-11-04T20:17:44.990Z,10.00
2018-11-04T20:20:15.788Z,9.90
2018-11-04T20:22:44.282Z,10.00
2018-11-04T20:25:18.081Z,9.80
2018-11-04T20:27:46.664Z,9.70
2018-11-04T20:30:15.563Z,9.90
2018-11-04T20:32:49.430Z,9.80
2018-11-04T20:35:17.964Z,9.70
2018-11-04T20:37:46.548Z,9.70
2018-11-04T20:40:20.389Z,9.80
2018-11-04T20:42:48.980Z,9.70
2018-11-04T20:45:17.599Z,9.70
2018-11-04T20:47:51.535Z,9.80
2018-11-04T20:50:25.305Z,9.80
2018-11-04T20:52:53.879Z,9.80
2018-11-04T20:55:22.500Z,9.80
2018-11-04T20:57:54.374Z,10.00
2018-11-04T21:00:23.067Z,10.00
2018-11-04T21:02:51.890Z,9.80
2018-11-04T21:05:20.419Z,9.70
2018-11-04T21:07:49.186Z,9.90
2018-11-04T21:10:17.997Z,9.80
2018-11-04T21:12:46.576Z,9.70
2018-11-04T21:15:15.126Z,9.80
2018-11-04T21:17:43.853Z,9.70
2018-11-04T21:20:12.397Z,9.80
2018-11-04T21:22:40.923Z,9.80
2018-11-04T21:25:09.641Z,9.80
2018-11-04T21:27:38.178Z,9.90
2018-11-04T21:30:09.297Z,9.80
2018-11-04T21:32:37.832Z,9.80
2018-11-04T21:35:07.592Z,9.80
2018-11-04T21:37:36.859Z,9.70
2018-11-04T21:40:06.358Z,9.60
2018-11-04T21:42:35.159Z,9.70
2018-11-04T21:45:03.879Z,10.00
2018-11-04T21:47:32.411Z,10.10
2018-11-04T21:50:01.474Z,9.70
2018-11-04T21:52:30.018Z,9.70
2018-11-04T21:54:58.796Z,9.70
2018-11-04T21:57:27.380Z,9.70
2018-11-04T21:59:55.953Z,9.80
2018-11-04T22:02:24.915Z,9.60
2018-11-04T22:04:53.393Z,9.70
2018-11-04T22:07:22.371Z,9.70
2018-11-04T22:09:50.956Z,9.60
2018-11-04T22:12:19.577Z,9.80
2018-11-04T22:14:48.554Z,9.60
2018-11-04T22:17:17.147Z,9.80
2018-11-04T22:19:46.127Z,9.90
2018-11-04T22:22:14.669Z,9.60
2018-11-04T22:24:43.506Z,9.70
2018-11-04T22:27:12.127Z,10.00
2018-11-04T22:29:40.687Z,9.80
2018-11-04T22:32:09.516Z,9.60
2018-11-04T22:34:38.112Z,9.60
2018-11-04T22:37:06.984Z,9.60
2018-11-04T22:39:35.686Z,9.70
2018-11-04T22:42:04.372Z,9.80
2018-11-04T22:44:33.086Z,9.90
2018-11-04T22:47:01.791Z,9.70
2018-11-04T22:49:30.353Z,9.90
2018-11-04T22:54:29.658Z,9.60
2018-11-04T22:56:58.272Z,9.70
2018-11-04T22:59:26.846Z,9.90
2018-11-04T23:01:55.530Z,9.50
2018-11-04T23:04:29.460Z,9.50
2018-11-04T23:06:58.066Z,9.40
2018-11-04T23:09:26.667Z,9.70
2018-11-04T23:11:55.223Z,9.50
2018-11-04T23:14:23.785Z,9.70
2018-11-04T23:16:52.426Z,9.60
2018-11-04T23:19:20.987Z,9.80
2018-11-04T23:21:49.845Z,9.50
2018-11-04T23:24:18.486Z,9.40
2018-11-04T23:26:47.025Z,9.60
2018-11-04T23:29:15.582Z,9.50
2018-11-04T23:31:44.120Z,9.50
2018-11-04T23:34:12.672Z,9.30
2018-11-04T23:36:41.214Z,9.20
2018-11-04T23:39:10.486Z,9.30
2018-11-04T23:41:39.141Z,9.30
2018-11-04T23:44:07.856Z,9.60
2018-11-04T23:46:36.423Z,9.60
2018-11-04T23:49:05.069Z,9.60
2018-11-04T23:51:33.590Z,9.80
2018-11-04T23:54:02.194Z,9.90
2018-11-04T23:56:30.715Z,9.90
2018-11-04T23:58:59.290Z,9.70
